Energy Champion — MJUZ7 — position and weather

sailwx.info

Track history (hours):
 
Tides and Currents Weather Stations Pressure Air Temp Water Temp Dewpoint Dewpoint Depression Visibility Wind Speed Wind Dir Waves Ship Positions

Energy Champion

Last reported at 2016-Jul-30 04:27 UTC. Time now 2016-Jul-30 05:30 UTC.
Position N 58°37' E 016°15'.

Length 228 m; draft 8 m.

Type: Ship. MMSI: 235009420.

Date/timePositionNaut miles runAvg speedWind from/ knotsBaromVisibWave heightAir tempDewpointWater temp
2016-Jul-30 04:27N 58°37' E 016°15'0 0.0
2016-Jul-30 03:33N 58°37' E 016°15'0 0.0
2016-Jul-30 02:27N 58°37' E 016°15'0 0.0
2016-Jul-30 01:33N 58°37' E 016°15'0 0.0
2016-Jul-30 00:27N 58°37' E 016°15'0 0.0
2016-Jul-29 23:33N 58°37' E 016°15'0 0.0
2016-Jul-29 22:27N 58°37' E 016°15'0 0.0
2016-Jul-29 21:27N 58°37' E 016°15'0 0.0
2016-Jul-29 20:33N 58°37' E 016°15'0 0.0
2016-Jul-29 19:33N 58°37' E 016°15'0 0.0
2016-Jul-29 18:33N 58°37' E 016°15'1 1.0
2016-Jul-29 17:33N 58°38' E 016°17'9 8.9
2016-Jul-29 16:33N 58°38' E 016°34'1111.0
2016-Jul-29 15:34N 58°36' E 016°55'1212.2
2016-Jul-29 14:33N 58°37' E 017°18'8 8.2
2016-Jul-29 13:34N 58°34' E 017°33'6 5.9
2016-Jul-29 12:33N 58°29' E 017°38'3 2.6
2016-Jul-29 11:32N 58°26' E 017°38'17612.3
2016-Jul-28 21:13N 55°43' E 015°35'912.3
2016-Jul-28 20:30N 55°37' E 015°22'1314.0
2016-Jul-28 19:34N 55°31' E 015°02'1414.2
2016-Jul-28 18:33N 55°23' E 014°41'1414.4
2016-Jul-28 17:33N 55°12' E 014°25'1414.4
2016-Jul-28 16:34N 55°01' E 014°08'1313.3
2016-Jul-28 15:33N 54°57' E 013°47'2914.0
2016-Jul-28 13:31N 54°48' E 012°59'1313.9
2016-Jul-28 12:33N 54°42' E 012°38'1413.5
2016-Jul-28 11:30N 54°34' E 012°18'1111.5
2016-Jul-28 10:33N 54°25' E 012°08'1313.4
2016-Jul-28 09:33N 54°25' E 011°46'1413.6
2016-Jul-28 08:33N 54°31' E 011°24'1313.1
2016-Jul-28 07:33N 54°37' E 011°04'1211.8
2016-Jul-28 06:34N 54°47' E 010°52'1211.9
2016-Jul-28 05:33N 54°58' E 010°58'1212.0
2016-Jul-28 04:33N 55°10' E 011°03'5711.4
2016-Jul-27 23:33N 56°07' E 011°10'4013.2
2016-Jul-27 20:33N 56°41' E 011°45'1211.7
2016-Jul-27 19:33N 56°53' E 011°45'1312.9
2016-Jul-27 18:33N 57°05' E 011°38'1312.7
2016-Jul-27 17:33N 57°17' E 011°30'1313.1
2016-Jul-27 16:34N 57°29' E 011°19'1312.5
2016-Jul-27 15:33N 57°35' E 010°59'1211.6
2016-Jul-27 14:33N 57°40' E 010°39'1 0.1
2016-Jul-27 07:33N 57°40' E 010°39'0 0.0
2016-Jul-27 05:24N 57°40' E 010°39'1 1.0
2016-Jul-27 04:33N 57°41' E 010°40'3 3.4
2016-Jul-27 03:33N 57°43' E 010°45'4 4.3
2016-Jul-27 02:33N 57°47' E 010°45'1212.0
2016-Jul-27 01:32N 57°50' E 010°23'29913.0
2016-Jul-26 02:30N 54°02' E 004°39'5213.2
2016-Jul-25 22:33N 53°23' E 003°40'1713.8
2016-Jul-25 21:19N 53°07' E 003°30'1114.2
2016-Jul-25 20:31N 52°56' E 003°23'4915.1
2016-Jul-25 17:16N 52°13' E 002°44'1115.5
2016-Jul-25 16:33N 52°03' E 002°41'1514.8
2016-Jul-25 15:33N 51°48' E 002°37'1514.9
2016-Jul-25 14:33N 51°36' E 002°23'1413.9
2016-Jul-25 13:33N 51°24' E 002°11'1312.6
2016-Jul-25 12:33N 51°13' E 002°01'1111.5
2016-Jul-25 11:34N 51°07' E 001°46'1111.0
2016-Jul-25 10:34N 51°00' E 001°32'1111.4
2016-Jul-25 09:33N 50°50' E 001°26'1211.8
2016-Jul-25 08:33N 50°40' E 001°16'3712.2
2016-Jul-25 05:33N 50°23' E 000°24'1312.6
2016-Jul-25 04:34N 50°20' E 000°05'1413.5
2016-Jul-25 03:33N 50°17' W 000°15'1413.9
2016-Jul-25 02:34N 50°12' W 000°35'1815.3
2016-Jul-25 01:24N 50°08' W 001°03'5217.6
2016-Jul-24 22:27N 49°55' W 002°21'1616.9
2016-Jul-24 21:32N 49°52' W 002°44'1616.1
2016-Jul-24 20:34N 49°49' W 003°08'1515.4
2016-Jul-24 19:33N 49°46' W 003°32'1515.1
2016-Jul-24 18:33N 49°46' W 003°55'1514.7
2016-Jul-24 17:30N 49°44' W 004°19'1414.4
2016-Jul-24 16:33N 49°43' W 004°40'  
Track history (hours):
 
Tides and Currents Weather Stations Pressure Air Temp Water Temp Dewpoint Dewpoint Depression Visibility Wind Speed Wind Dir Waves Ship Positions

Energy Champion

Last reported at 2016-Jul-30 04:27 UTC. Time now 2016-Jul-30 05:30 UTC.
Position N 58°37' E 016°15'.

Length 228 m; draft 8 m.

Type: Ship. MMSI: 235009420.

Date/timePositionNaut miles runAvg speedWind from/ knotsBaromVisibWave heightAir tempDewpointWater temp
2016-Jul-30 04:27N 58°37' E 016°15'0 0.0
2016-Jul-30 03:33N 58°37' E 016°15'0 0.0
2016-Jul-30 02:27N 58°37' E 016°15'0 0.0
2016-Jul-30 01:33N 58°37' E 016°15'0 0.0
2016-Jul-30 00:27N 58°37' E 016°15'0 0.0
2016-Jul-29 23:33N 58°37' E 016°15'0 0.0
2016-Jul-29 22:27N 58°37' E 016°15'0 0.0
2016-Jul-29 21:27N 58°37' E 016°15'0 0.0
2016-Jul-29 20:33N 58°37' E 016°15'0 0.0
2016-Jul-29 19:33N 58°37' E 016°15'0 0.0
2016-Jul-29 18:33N 58°37' E 016°15'1 1.0
2016-Jul-29 17:33N 58°38' E 016°17'9 8.9
2016-Jul-29 16:33N 58°38' E 016°34'1111.0
2016-Jul-29 15:34N 58°36' E 016°55'1212.2
2016-Jul-29 14:33N 58°37' E 017°18'8 8.2
2016-Jul-29 13:34N 58°34' E 017°33'6 5.9
2016-Jul-29 12:33N 58°29' E 017°38'3 2.6
2016-Jul-29 11:32N 58°26' E 017°38'17612.3
2016-Jul-28 21:13N 55°43' E 015°35'912.3
2016-Jul-28 20:30N 55°37' E 015°22'1314.0
2016-Jul-28 19:34N 55°31' E 015°02'1414.2
2016-Jul-28 18:33N 55°23' E 014°41'1414.4
2016-Jul-28 17:33N 55°12' E 014°25'1414.4
2016-Jul-28 16:34N 55°01' E 014°08'1313.3
2016-Jul-28 15:33N 54°57' E 013°47'2914.0
2016-Jul-28 13:31N 54°48' E 012°59'1313.9
2016-Jul-28 12:33N 54°42' E 012°38'1413.5
2016-Jul-28 11:30N 54°34' E 012°18'1111.5
2016-Jul-28 10:33N 54°25' E 012°08'1313.4
2016-Jul-28 09:33N 54°25' E 011°46'1413.6
2016-Jul-28 08:33N 54°31' E 011°24'1313.1
2016-Jul-28 07:33N 54°37' E 011°04'1211.8
2016-Jul-28 06:34N 54°47' E 010°52'1211.9
2016-Jul-28 05:33N 54°58' E 010°58'1212.0
2016-Jul-28 04:33N 55°10' E 011°03'5711.4
2016-Jul-27 23:33N 56°07' E 011°10'4013.2
2016-Jul-27 20:33N 56°41' E 011°45'1211.7
2016-Jul-27 19:33N 56°53' E 011°45'1312.9
2016-Jul-27 18:33N 57°05' E 011°38'1312.7
2016-Jul-27 17:33N 57°17' E 011°30'1313.1
2016-Jul-27 16:34N 57°29' E 011°19'1312.5
2016-Jul-27 15:33N 57°35' E 010°59'1211.6
2016-Jul-27 14:33N 57°40' E 010°39'1 0.1
2016-Jul-27 07:33N 57°40' E 010°39'0 0.0
2016-Jul-27 05:24N 57°40' E 010°39'1 1.0
2016-Jul-27 04:33N 57°41' E 010°40'3 3.4
2016-Jul-27 03:33N 57°43' E 010°45'4 4.3
2016-Jul-27 02:33N 57°47' E 010°45'1212.0
2016-Jul-27 01:32N 57°50' E 010°23'29913.0
2016-Jul-26 02:30N 54°02' E 004°39'5213.2
2016-Jul-25 22:33N 53°23' E 003°40'1713.8
2016-Jul-25 21:19N 53°07' E 003°30'1114.2
2016-Jul-25 20:31N 52°56' E 003°23'4915.1
2016-Jul-25 17:16N 52°13' E 002°44'1115.5
2016-Jul-25 16:33N 52°03' E 002°41'1514.8
2016-Jul-25 15:33N 51°48' E 002°37'1514.9
2016-Jul-25 14:33N 51°36' E 002°23'1413.9
2016-Jul-25 13:33N 51°24' E 002°11'1312.6
2016-Jul-25 12:33N 51°13' E 002°01'1111.5
2016-Jul-25 11:34N 51°07' E 001°46'1111.0
2016-Jul-25 10:34N 51°00' E 001°32'1111.4
2016-Jul-25 09:33N 50°50' E 001°26'1211.8
2016-Jul-25 08:33N 50°40' E 001°16'3712.2
2016-Jul-25 05:33N 50°23' E 000°24'1312.6
2016-Jul-25 04:34N 50°20' E 000°05'1413.5
2016-Jul-25 03:33N 50°17' W 000°15'1413.9
2016-Jul-25 02:34N 50°12' W 000°35'1815.3
2016-Jul-25 01:24N 50°08' W 001°03'5217.6
2016-Jul-24 22:27N 49°55' W 002°21'1616.9
2016-Jul-24 21:32N 49°52' W 002°44'1616.1
2016-Jul-24 20:34N 49°49' W 003°08'1515.4
2016-Jul-24 19:33N 49°46' W 003°32'1515.1
2016-Jul-24 18:33N 49°46' W 003°55'1514.7
2016-Jul-24 17:30N 49°44' W 004°19'1414.4
2016-Jul-24 16:33N 49°43' W 004°40'  

Dump ship's entire track history